Time;durP1;ratioP1;P1;durP2;ratioP2;P2;SDS_P1;SDS_P2;PMS_P1;PMS_P2;Temp;Humidity;BMP_temperature;BMP_pressure;BME280_temperature;BME280_humidity;BME280_pressure;Samples;Min_cycle;Max_cycle;Signal;HPM_P1;HPM_P2
2022/02/06 00:00:38;;;;;;;2.60;0.70;;;0.70;1.40;;;0.97;100.00;95913.67;645143;216;31579;-74
2022/02/06 00:03:21;;;;;;;0.50;0.40;;;0.50;1.40;;;0.88;100.00;95911.36;646511;216;31799;-74
2022/02/06 00:06:03;;;;;;;0.47;0.47;;;0.50;1.40;;;0.80;100.00;95910.52;647207;216;42126;-76
2022/02/06 00:08:47;;;;;;;0.90;0.50;;;0.40;1.40;;;0.73;100.00;95905.38;623577;222;31867;-73
2022/02/06 00:11:28;;;;;;;0.70;0.70;;;0.20;1.40;;;0.82;100.00;95902.51;621620;222;31952;-74
2022/02/06 00:14:10;;;;;;;1.50;1.00;;;0.50;1.40;;;0.75;100.00;95901.35;645945;216;31487;-76
2022/02/06 00:16:55;;;;;;;0.50;0.40;;;0.30;1.40;;;0.69;100.00;95903.88;649097;216;31849;-74
2022/02/06 00:22:23;;;;;;;1.30;1.20;;;0.40;1.40;;;0.84;100.00;95900.90;648847;216;42106;-76
2022/02/06 00:28:04;;;;;;;3.50;0.50;;;0.80;1.40;;;0.96;100.00;95898.22;652432;216;31568;-74
2022/02/06 00:30:41;;;;;;;1.20;0.60;;;0.70;1.40;;;0.87;100.00;95897.77;648388;216;32155;-75
2022/02/06 00:36:04;;;;;;;0.50;0.30;;;0.40;1.40;;;0.67;100.00;95893.66;647131;216;31582;-75
2022/02/06 00:41:25;;;;;;;0.50;0.30;;;0.30;1.40;;;0.70;100.00;95878.25;622023;222;32006;-75
2022/02/06 00:44:10;;;;;;;0.40;0.30;;;0.30;1.40;;;0.72;100.00;95868.58;645522;212;42182;-74
2022/02/06 00:47:02;;;;;;;1.70;0.80;;;0.40;1.40;;;0.72;100.00;95867.73;648693;212;31506;-77
2022/02/06 00:49:44;;;;;;;0.80;0.50;;;0.40;1.40;;;0.86;100.00;95865.14;652410;212;31707;-76
2022/02/06 00:52:29;;;;;;;0.60;0.40;;;0.60;1.40;;;0.77;100.00;95860.56;644101;212;42685;-76
2022/02/06 00:55:06;;;;;;;0.40;0.30;;;0.50;1.40;;;1.01;100.00;95863.51;648376;216;42683;-76
2022/02/06 00:57:47;;;;;;;2.90;0.60;;;0.70;1.40;;;1.14;100.00;95850.00;649411;212;42182;-74
2022/02/06 01:00:29;;;;;;;0.40;0.30;;;0.70;1.40;;;1.10;100.00;95849.88;645757;212;31530;-73
2022/02/06 01:03:11;;;;;;;0.45;0.45;;;0.80;1.40;;;0.99;100.00;95851.69;648066;212;31470;-76
2022/02/06 01:05:52;;;;;;;0.60;0.60;;;0.70;1.40;;;1.02;100.00;95850.03;617526;222;31800;-73
2022/02/06 01:08:34;;;;;;;1.10;0.40;;;0.70;1.40;;;1.02;100.00;95848.39;619894;226;31867;-75
2022/02/06 01:11:16;;;;;;;4.50;1.00;;;0.60;1.40;;;0.98;100.00;95851.88;651589;216;31507;-74
2022/02/06 01:14:24;;;;;;;0.90;0.70;;;0.70;1.40;;;1.15;100.00;95853.11;649797;216;31493;-75
2022/02/06 01:17:06;;;;;;;0.70;0.30;;;0.80;1.40;;;1.19;100.00;95849.98;644942;212;42792;-74
2022/02/06 01:19:55;;;;;;;2.95;0.73;;;0.70;1.40;;;1.13;100.00;95845.66;644720;216;31509;-76
2022/02/06 01:22:32;;;;;;;1.50;0.82;;;0.80;1.40;;;1.14;100.00;95841.24;650957;212;31802;-78
2022/02/06 01:25:25;;;;;;;1.60;0.80;;;0.90;1.40;;;1.14;100.00;95834.56;645177;216;31471;-75
2022/02/06 01:28:08;;;;;;;0.50;0.30;;;0.70;1.40;;;1.16;100.00;95835.93;651257;212;36325;-76
2022/02/06 01:30:52;;;;;;;0.80;0.60;;;0.80;1.40;;;1.20;100.00;95832.34;650306;212;42222;-73
2022/02/06 01:35:59;;;;;;;0.60;0.60;;;0.70;1.40;;;1.27;100.00;95828.52;645060;212;31511;-74
2022/02/06 01:38:59;;;;;;;0.40;0.40;;;0.90;1.40;;;1.16;100.00;95830.16;650663;212;31580;-76
2022/02/06 01:41:21;;;;;;;0.40;0.40;;;0.80;1.40;;;1.09;100.00;95816.44;649265;212;31625;-77
2022/02/06 01:44:12;;;;;;;0.50;0.50;;;0.70;1.40;;;1.08;100.00;95810.64;645421;216;42165;-77
2022/02/06 01:57:22;;;;;;;0.90;0.60;;;0.70;1.40;;;1.00;100.00;95816.19;648311;216;31632;-74
2022/02/06 02:04:21;;;;;;;0.70;0.60;;;0.90;1.40;;;1.01;100.00;95807.03;650889;212;31563;-76
2022/02/06 02:09:55;;;;;;;0.40;0.30;;;0.80;1.40;;;1.09;100.00;95791.67;652255;212;31506;-76
2022/02/06 02:12:28;;;;;;;0.70;0.70;;;0.80;1.40;;;1.17;100.00;95791.05;650210;212;42117;-76
2022/02/06 02:15:20;;;;;;;1.00;0.70;;;0.90;1.40;;;1.15;100.00;95790.16;645818;212;42094;-74
2022/02/06 02:30:11;;;;;;;0.45;0.35;;;1.00;1.40;;;1.42;100.00;95776.88;648334;212;31506;-74
2022/02/06 02:47:22;;;;;;;0.45;0.45;;;1.00;1.40;;;1.22;100.00;95758.52;649184;216;31595;-76
2022/02/06 02:50:10;;;;;;;5.00;0.60;;;0.80;1.40;;;1.07;100.00;95758.63;646557;212;31525;-73
2022/02/06 02:52:57;;;;;;;0.40;0.40;;;0.60;1.40;;;0.98;100.00;95756.16;619617;225;42516;-73
2022/02/06 03:01:26;;;;;;;0.50;0.47;;;0.60;1.40;;;0.87;100.00;95748.76;617150;226;32746;-76
2022/02/06 03:03:58;;;;;;;0.60;0.60;;;0.40;1.40;;;0.79;100.00;95751.11;652517;212;31557;-73
2022/02/06 03:06:40;;;;;;;0.45;0.43;;;0.30;1.40;;;0.77;100.00;95749.98;641213;216;31750;-76
2022/02/06 03:09:23;;;;;;;0.40;0.30;;;0.40;1.40;;;0.76;100.00;95753.29;643834;216;31625;-74
2022/02/06 03:12:03;;;;;;;0.40;0.30;;;0.50;1.40;;;0.96;100.00;95757.66;625086;222;31961;-76
2022/02/06 03:14:56;;;;;;;0.60;0.60;;;0.70;1.40;;;1.05;100.00;95754.48;647857;212;31732;-77
2022/02/06 03:17:35;;;;;;;0.60;0.40;;;0.70;1.40;;;1.00;100.00;95755.39;616138;222;32055;-73
2022/02/06 03:20:19;;;;;;;0.50;0.40;;;0.60;1.40;;;0.92;100.00;95748.05;646585;216;31498;-73
2022/02/06 03:23:02;;;;;;;0.60;0.30;;;0.50;1.40;;;0.93;100.00;95751.16;650928;216;31509;-76
2022/02/06 03:25:49;;;;;;;1.05;0.50;;;0.50;1.40;;;0.95;100.00;95748.24;645970;212;31538;-76
2022/02/06 03:28:26;;;;;;;0.40;0.37;;;0.60;1.40;;;0.84;100.00;95749.18;645365;216;31466;-75
2022/02/06 03:31:08;;;;;;;0.40;0.30;;;0.40;1.40;;;0.78;100.00;95744.41;651764;216;42118;-74
2022/02/06 03:35:58;;;;;;;0.40;0.30;;;0.40;1.40;;;0.81;100.00;95735.23;648418;212;31598;-73
2022/02/06 03:38:39;;;;;;;1.60;0.40;;;0.40;1.40;;;0.78;100.00;95738.17;648024;216;42149;-74
2022/02/06 03:41:21;;;;;;;3.70;0.90;;;0.40;1.40;;;0.78;100.00;95735.71;647371;212;31483;-76
2022/02/06 03:44:17;;;;;;;0.40;0.30;;;0.50;1.40;;;0.91;100.00;95732.02;647573;212;42211;-78
2022/02/06 03:47:18;;;;;;;0.40;0.30;;;0.60;1.40;;;0.91;100.00;95730.05;649278;216;31517;-73
2022/02/06 03:50:01;;;;;;;0.40;0.40;;;0.70;1.40;;;0.99;100.00;95719.88;646688;216;42761;-74
2022/02/06 03:55:07;;;;;;;1.35;0.60;;;0.60;1.40;;;1.06;100.00;95720.23;650864;216;32103;-77
2022/02/06 03:57:52;;;;;;;0.45;0.32;;;0.80;1.40;;;1.14;100.00;95717.63;646116;212;31497;-74
2022/02/06 04:00:34;;;;;;;0.80;0.50;;;0.90;1.40;;;1.20;100.00;95716.45;651334;216;42121;-74
2022/02/06 04:03:16;;;;;;;1.60;0.50;;;0.90;1.40;;;1.22;100.00;95711.16;638422;221;31639;-75
2022/02/06 04:06:00;;;;;;;2.65;0.50;;;0.90;1.40;;;1.29;100.00;95709.94;650138;216;31521;-76
2022/02/06 04:08:43;;;;;;;1.40;0.40;;;0.90;1.40;;;1.27;100.00;95705.11;649230;216;31513;-74
2022/02/06 04:11:45;;;;;;;0.40;0.30;;;0.90;1.40;;;1.37;100.00;95694.57;620629;226;31832;-78
2022/02/06 04:14:27;;;;;;;0.80;0.30;;;1.10;1.40;;;1.46;100.00;95696.86;649791;212;31522;-74
2022/02/06 04:17:21;;;;;;;0.60;0.40;;;1.10;1.40;;;1.57;100.00;95690.50;647877;216;31573;-78
2022/02/06 04:19:58;;;;;;;0.40;0.32;;;1.30;1.40;;;1.60;100.00;95693.70;648670;216;31509;-74
2022/02/06 04:22:40;;;;;;;1.30;0.60;;;1.30;1.40;;;1.58;100.00;95689.56;646426;216;31622;-75
2022/02/06 04:25:22;;;;;;;2.80;0.30;;;1.20;1.40;;;1.50;100.00;95689.33;651232;212;42715;-76
2022/02/06 04:28:09;;;;;;;0.40;0.40;;;1.00;1.40;;;1.60;100.00;95684.69;649633;216;42133;-77
2022/02/06 04:30:57;;;;;;;0.40;0.30;;;1.20;1.40;;;1.59;100.00;95681.19;648149;216;32206;-74
2022/02/06 04:35:59;;;;;;;0.40;0.20;;;1.10;1.40;;;1.71;100.00;95679.00;645888;216;42699;-73
2022/02/06 04:38:53;;;;;;;0.40;0.40;;;1.50;1.40;;;2.01;100.00;95666.02;645030;216;31494;-75
2022/02/06 04:41:43;;;;;;;0.40;0.20;;;1.80;1.40;;;2.22;100.00;95663.93;647016;212;31491;-76
2022/02/06 04:44:35;;;;;;;0.60;0.60;;;1.90;1.40;;;2.12;100.00;95657.81;636807;221;31741;-74
2022/02/06 04:53:08;;;;;;;2.95;0.62;;;2.10;1.40;;;2.33;100.00;95647.31;650495;212;31495;-76
2022/02/06 04:56:05;;;;;;;0.60;0.30;;;2.00;1.40;;;2.30;100.00;95639.25;643163;212;31535;-76
2022/02/06 05:27:00;;;;;;;3.30;0.90;;;2.20;1.40;;;2.62;100.00;95601.75;643748;212;31892;-74
2022/02/06 05:29:42;;;;;;;0.40;0.30;;;2.40;1.40;;;2.58;100.00;95592.09;646037;216;42716;-76
2022/02/06 05:32:18;;;;;;;0.40;0.30;;;2.20;1.40;;;2.59;100.00;95591.63;647406;212;31902;-75
2022/02/06 05:35:52;;;;;;;0.40;0.30;;;2.30;1.40;;;2.62;100.00;95566.43;648336;212;31518;-74
2022/02/06 05:38:33;;;;;;;1.50;0.40;;;2.30;1.40;;;2.69;100.00;95578.44;649203;216;31510;-74
2022/02/06 05:41:15;;;;;;;0.40;0.20;;;2.30;1.40;;;2.65;100.00;95583.69;646103;216;31480;-74
2022/02/06 05:46:31;;;;;;;0.55;0.55;;;2.50;1.40;;;2.82;100.00;95574.20;645238;216;31715;-75
2022/02/06 05:49:13;;;;;;;0.40;0.30;;;2.50;1.40;;;2.87;100.00;95571.84;647615;216;31835;-74
2022/02/06 05:51:55;;;;;;;0.40;0.30;;;2.60;1.40;;;2.89;100.00;95577.48;620373;222;31879;-73
2022/02/06 05:54:42;;;;;;;0.60;0.52;;;2.50;1.40;;;2.88;100.00;95574.05;621499;226;31867;-77
2022/02/06 05:57:30;;;;;;;0.75;0.47;;;2.60;1.40;;;2.97;100.00;95578.73;643632;216;31668;-74
2022/02/06 06:00:12;;;;;;;0.40;0.30;;;2.60;1.40;;;2.85;100.00;95589.98;644318;216;31520;-73
2022/02/06 06:02:54;;;;;;;0.40;0.30;;;2.50;1.40;;;2.90;100.00;95593.25;647957;216;31497;-73
2022/02/06 06:05:42;;;;;;;0.90;0.90;;;2.60;1.40;;;2.97;100.00;95601.56;646154;216;31527;-77
2022/02/06 06:08:24;;;;;;;0.40;0.30;;;2.70;1.40;;;3.05;100.00;95597.97;649068;216;31493;-77
2022/02/06 06:11:11;;;;;;;0.60;0.60;;;2.80;1.40;;;3.08;100.00;95584.12;646195;212;31501;-73
2022/02/06 06:13:53;;;;;;;0.60;0.40;;;2.80;1.40;;;3.08;100.00;95600.45;647036;216;31472;-74
2022/02/06 06:16:37;;;;;;;0.40;0.40;;;2.80;1.40;;;3.08;100.00;95590.81;622660;226;32033;-77
2022/02/06 06:19:24;;;;;;;1.30;0.60;;;2.70;1.40;;;3.04;100.00;95601.06;644519;212;31540;-76
2022/02/06 06:22:08;;;;;;;0.70;0.40;;;2.70;1.40;;;3.00;100.00;95599.64;649035;212;31503;-73
2022/02/06 06:24:56;;;;;;;0.40;0.30;;;2.70;1.40;;;3.02;100.00;95593.92;646056;216;31536;-77
2022/02/06 06:27:44;;;;;;;0.70;0.40;;;2.80;1.40;;;3.14;100.00;95589.75;646563;212;31526;-75
2022/02/06 06:30:27;;;;;;;0.40;0.40;;;2.90;1.40;;;3.06;100.00;95591.12;646137;216;31506;-75
2022/02/06 06:35:52;;;;;;;0.40;0.40;;;2.70;1.40;;;2.97;100.00;95599.78;648375;212;41940;-75
2022/02/06 06:38:33;;;;;;;0.60;0.40;;;2.70;1.40;;;3.16;100.00;95611.22;644984;216;31570;-73
2022/02/06 06:41:20;;;;;;;0.70;0.40;;;2.90;1.40;;;3.07;100.00;95593.01;623539;222;32006;-77
2022/02/06 06:44:08;;;;;;;1.20;0.50;;;2.70;1.40;;;3.16;100.00;95593.39;649833;216;31525;-75
2022/02/06 06:46:50;;;;;;;0.40;0.30;;;2.90;1.40;;;3.15;100.00;95582.27;647073;216;32177;-73
2022/02/06 06:49:31;;;;;;;0.40;0.35;;;2.80;1.40;;;3.12;100.00;95587.32;618854;226;32040;-73
2022/02/06 06:52:13;;;;;;;0.40;0.25;;;2.80;1.40;;;3.05;100.00;95582.06;648605;216;31549;-76
2022/02/06 06:55:01;;;;;;;0.40;0.30;;;2.70;1.40;;;2.98;100.00;95575.25;621110;226;32010;-75
2022/02/06 06:57:43;;;;;;;0.70;0.50;;;2.60;1.40;;;3.02;100.00;95581.61;632105;217;31673;-75
2022/02/06 07:00:39;;;;;;;0.50;0.30;;;2.70;1.40;;;3.04;100.00;95586.13;649405;212;32394;-76
2022/02/06 07:03:05;;;;;;;0.40;0.30;;;2.60;1.40;;;3.12;100.00;95587.27;648356;216;36497;-74
2022/02/06 07:05:50;;;;;;;2.10;0.50;;;2.80;1.40;;;3.22;100.00;95574.52;621360;226;32412;-74
2022/02/06 07:08:31;;;;;;;0.60;0.60;;;2.90;1.40;;;3.13;100.00;95580.63;618352;222;32519;-73
2022/02/06 07:11:13;;;;;;;1.70;0.40;;;2.80;1.40;;;3.31;100.00;95573.42;652342;213;32783;-75
2022/02/06 07:14:02;;;;;;;0.47;0.47;;;3.00;1.40;;;3.31;100.00;95567.31;643973;217;31581;-89
2022/02/06 07:16:46;;;;;;;0.50;0.30;;;3.00;1.40;;;3.23;100.00;95571.05;645924;212;31527;-76
2022/02/06 07:19:27;;;;;;;0.50;0.40;;;2.90;1.40;;;3.24;100.00;95566.72;626273;222;31840;-74
2022/02/06 07:22:15;;;;;;;0.62;0.30;;;2.90;1.40;;;3.30;100.00;95561.14;645561;216;31503;-73
2022/02/06 07:24:54;;;;;;;0.90;0.50;;;2.90;1.40;;;3.32;100.00;95562.71;646619;216;31887;-76
2022/02/06 07:27:39;;;;;;;0.70;0.40;;;3.00;1.40;;;3.33;100.00;95559.77;617484;222;31838;-73
2022/02/06 07:30:18;;;;;;;0.52;0.43;;;2.90;1.40;;;3.36;100.00;95547.17;644533;216;31558;-76
2022/02/06 07:32:59;;;;;;;0.40;0.30;;;3.00;1.40;;;3.39;100.00;95545.43;647942;212;31488;-73
2022/02/06 07:35:52;;;;;;;0.43;0.20;;;3.00;1.40;;;3.28;100.00;95539.05;623423;226;31828;-73
2022/02/06 07:38:35;;;;;;;0.40;0.35;;;3.00;1.40;;;3.32;100.00;95540.58;652402;216;31730;-73
2022/02/06 07:41:17;;;;;;;0.70;0.30;;;3.00;1.40;;;3.35;100.00;95529.76;647434;212;31621;-73
2022/02/06 07:43:59;;;;;;;0.60;0.60;;;3.00;1.40;;;3.46;100.00;95535.56;646764;216;31602;-75
2022/02/06 07:49:18;;;;;;;0.40;0.40;;;3.20;1.40;;;3.32;100.00;95550.17;647559;216;31572;-75
2022/02/06 07:51:59;;;;;;;0.50;0.40;;;3.00;1.40;;;3.34;100.00;95535.23;646611;216;31627;-73
2022/02/06 07:54:41;;;;;;;0.40;0.25;;;3.00;1.40;;;3.41;100.00;95533.13;620419;226;32060;-76
2022/02/06 07:57:23;;;;;;;0.80;0.40;;;3.10;1.40;;;3.39;100.00;95523.62;644963;216;31634;-75
2022/02/06 08:00:07;;;;;;;2.30;0.65;;;3.00;1.40;;;3.34;100.00;95527.95;646180;216;31481;-74
2022/02/06 08:02:52;;;;;;;2.10;0.55;;;3.00;1.40;;;3.54;100.00;95532.70;648765;216;31517;-75
2022/02/06 08:05:40;;;;;;;0.65;0.57;;;3.30;1.40;;;3.58;100.00;95527.41;649213;212;31878;-79
2022/02/06 08:08:27;;;;;;;0.40;0.30;;;3.30;1.40;;;3.70;100.00;95535.91;623268;222;31835;-74
2022/02/06 08:11:13;;;;;;;0.50;0.50;;;3.40;1.40;;;3.86;100.00;95533.83;621108;222;31872;-75
2022/02/06 08:13:54;;;;;;;0.40;0.40;;;3.60;1.40;;;3.98;100.00;95520.34;648100;216;31508;-74
2022/02/06 08:16:32;;;;;;;0.40;0.28;;;3.80;1.40;;;4.15;99.66;95533.91;645746;216;31763;-76
2022/02/06 08:19:14;;;;;;;1.70;0.40;;;3.90;1.40;;;4.22;100.00;95522.95;647462;212;31481;-75
2022/02/06 08:21:59;;;;;;;1.60;0.30;;;4.00;1.40;;;4.32;99.42;95531.00;621101;226;31831;-74
2022/02/06 08:24:43;;;;;;;0.57;0.40;;;4.10;1.40;;;4.40;99.29;95519.33;651245;216;35437;-76
2022/02/06 08:27:24;;;;;;;0.60;0.50;;;4.10;1.40;;;4.43;96.72;95534.42;649522;212;33007;-75
2022/02/06 08:30:08;;;;;;;0.40;0.30;;;4.20;1.40;;;4.59;97.29;95508.72;648624;212;31534;-73
2022/02/06 08:32:49;;;;;;;0.40;0.30;;;4.20;1.40;;;4.61;96.27;95516.41;648650;216;31468;-74
2022/02/06 08:35:51;;;;;;;0.70;0.40;;;4.30;1.40;;;4.69;95.45;95507.27;618760;222;32369;-76
2022/02/06 08:38:32;;;;;;;1.85;0.52;;;4.50;1.40;;;4.80;96.33;95491.77;624627;222;31823;-76
2022/02/06 08:41:14;;;;;;;0.90;0.60;;;4.50;1.40;;;4.77;93.52;95496.97;651448;216;31645;-76
2022/02/06 08:43:56;;;;;;;1.30;0.60;;;4.50;1.40;;;4.92;93.23;95471.23;645622;212;31486;-74
2022/02/06 08:46:37;;;;;;;0.40;0.20;;;4.70;1.40;;;5.07;92.04;95474.31;620898;225;31840;-74
2022/02/06 08:51:56;;;;;;;0.60;0.40;;;4.80;1.40;;;5.09;91.59;95456.36;648228;212;31477;-74
2022/02/06 08:54:45;;;;;;;0.40;0.20;;;4.80;1.40;;;5.18;91.18;95452.06;652162;216;31522;-77
2022/02/06 08:57:28;;;;;;;3.00;0.60;;;5.00;1.40;;;5.31;88.96;95451.75;651302;216;31507;-75
2022/02/06 09:00:10;;;;;;;3.15;0.68;;;5.10;1.40;;;5.47;88.16;95446.16;647234;216;31502;-75
2022/02/06 09:03:01;;;;;;;2.00;0.40;;;5.30;1.40;;;5.66;87.49;95439.89;645759;212;32196;-76
2022/02/06 09:05:49;;;;;;;0.40;0.30;;;5.40;1.40;;;5.70;86.50;95428.53;644501;216;31661;-79
2022/02/06 09:08:37;;;;;;;0.40;0.30;;;5.30;1.40;;;5.66;87.48;95432.47;646246;212;31497;-75
2022/02/06 09:11:19;;;;;;;0.40;0.20;;;5.30;1.40;;;5.53;86.11;95411.19;645561;212;31877;-74
2022/02/06 09:14:03;;;;;;;0.50;0.30;;;5.30;1.40;;;5.60;87.08;95426.25;620680;222;31908;-78
2022/02/06 09:16:47;;;;;;;1.30;0.90;;;5.20;1.40;;;5.52;86.43;95422.43;616948;226;32004;-75
2022/02/06 09:19:28;;;;;;;1.17;0.65;;;5.10;1.40;;;5.39;87.39;95410.61;625471;222;32096;-76
2022/02/06 09:22:10;;;;;;;1.00;0.52;;;5.10;1.40;;;5.40;88.10;95408.80;617947;225;32181;-76
2022/02/06 09:24:54;;;;;;;0.50;0.40;;;5.10;1.40;;;5.61;88.58;95403.39;648523;216;31501;-79
2022/02/06 09:27:37;;;;;;;0.40;0.32;;;5.40;1.40;;;5.42;85.50;95395.30;646629;216;31630;-76
2022/02/06 09:30:21;;;;;;;1.90;0.40;;;5.20;1.40;;;5.56;85.67;95409.45;617935;222;31968;-76
2022/02/06 09:35:51;;;;;;;0.50;0.40;;;5.80;1.40;;;6.21;83.75;95414.16;622267;225;32106;-77
2022/02/06 09:38:33;;;;;;;0.50;0.37;;;6.20;1.40;;;6.41;84.10;95417.45;647507;212;42507;-76
2022/02/06 09:41:14;;;;;;;0.50;0.30;;;6.40;1.40;;;6.63;82.29;95408.18;646941;212;31572;-75
2022/02/06 09:43:56;;;;;;;0.60;0.40;;;6.30;1.40;;;6.57;81.80;95409.62;619118;222;32364;-74
2022/02/06 09:46:44;;;;;;;1.17;0.35;;;6.10;1.40;;;6.57;81.89;95395.30;647424;216;31653;-80
2022/02/06 09:49:27;;;;;;;1.87;0.50;;;6.30;1.40;;;6.87;79.60;95400.05;646212;216;31685;-75
2022/02/06 09:52:09;;;;;;;0.60;0.50;;;6.90;1.40;;;7.22;77.91;95393.36;646911;216;31489;-77
2022/02/06 09:54:50;;;;;;;0.60;0.45;;;7.20;1.40;;;7.26;76.01;95385.00;646806;216;31492;-75
2022/02/06 09:57:41;;;;;;;1.40;0.40;;;6.80;1.40;;;7.31;75.57;95382.89;646140;212;32062;-74
2022/02/06 10:00:23;;;;;;;0.60;0.30;;;7.00;1.40;;;7.33;75.15;95398.52;648732;216;31617;-79
2022/02/06 10:03:09;;;;;;;0.50;0.40;;;6.80;1.40;;;7.58;75.79;95405.02;647310;216;32772;-74
2022/02/06 10:05:51;;;;;;;0.40;0.30;;;7.60;1.40;;;7.94;74.09;95386.84;645849;212;31535;-74
2022/02/06 10:08:35;;;;;;;3.30;0.50;;;7.50;1.40;;;7.75;73.05;95388.83;646341;213;31515;-76
2022/02/06 10:11:14;;;;;;;0.60;0.50;;;7.70;1.40;;;7.96;73.10;95386.77;646318;212;31510;-76
2022/02/06 10:13:56;;;;;;;0.40;0.30;;;7.90;1.40;;;8.15;69.81;95382.06;647334;216;42146;-74
2022/02/06 10:16:37;;;;;;;0.40;0.30;;;8.20;1.40;;;8.30;69.09;95372.65;646477;212;31909;-74
2022/02/06 10:19:19;;;;;;;0.50;0.30;;;8.00;1.40;;;8.55;68.58;95386.52;646362;212;31537;-75
2022/02/06 10:22:01;;;;;;;0.50;0.30;;;8.60;1.40;;;9.20;67.36;95370.34;620361;222;32146;-74
2022/02/06 10:24:44;;;;;;;0.50;0.30;;;9.20;1.40;;;9.36;67.29;95358.23;647136;212;31535;-74
2022/02/06 10:27:45;;;;;;;1.40;0.70;;;9.20;1.40;;;8.98;68.32;95360.59;618815;225;32353;-74
2022/02/06 10:30:40;;;;;;;0.50;0.32;;;9.10;1.40;;;9.41;65.56;95362.84;618948;222;31835;-74
2022/02/06 10:35:51;;;;;;;2.10;0.50;;;8.10;1.40;;;9.18;68.81;95345.44;618141;225;32266;-73
2022/02/06 10:38:33;;;;;;;1.70;0.47;;;8.50;1.40;;;7.89;70.24;95348.85;647447;216;42243;-76
2022/02/06 10:41:16;;;;;;;0.80;0.50;;;7.10;1.40;;;7.88;74.06;95333.91;645937;212;31625;-77
2022/02/06 10:43:59;;;;;;;0.60;0.40;;;7.30;1.40;;;7.56;72.76;95333.88;619422;222;31957;-74
2022/02/06 10:46:48;;;;;;;1.87;0.60;;;6.80;1.40;;;7.35;75.84;95337.98;646442;212;31489;-74
2022/02/06 10:49:29;;;;;;;0.53;0.33;;;6.70;1.40;;;6.93;76.99;95341.86;630276;222;31613;-75
2022/02/06 10:52:12;;;;;;;1.30;0.50;;;6.60;1.40;;;7.56;76.56;95326.88;646996;212;31537;-75
2022/02/06 10:54:56;;;;;;;0.57;0.33;;;7.20;1.40;;;7.45;76.17;95309.20;646806;216;31554;-75
2022/02/06 10:57:35;;;;;;;0.60;0.60;;;6.90;1.40;;;7.42;78.43;95320.42;646569;216;31519;-75
2022/02/06 11:00:18;;;;;;;0.40;0.20;;;7.30;1.40;;;7.97;75.66;95294.59;646310;212;31467;-74
2022/02/06 11:03:04;;;;;;;0.50;0.40;;;7.80;1.40;;;7.43;74.57;95289.23;647147;212;31626;-73
2022/02/06 11:05:49;;;;;;;0.40;0.30;;;7.10;1.40;;;7.41;76.41;95293.04;645030;216;31540;-73
2022/02/06 11:08:32;;;;;;;0.60;0.43;;;6.80;1.40;;;6.92;77.94;95301.62;645953;216;31568;-74
2022/02/06 11:11:13;;;;;;;1.10;0.47;;;6.50;1.40;;;6.99;79.94;95278.96;647556;212;31509;-74
2022/02/06 11:13:55;;;;;;;3.30;0.50;;;6.60;1.40;;;7.68;78.49;95243.59;645387;212;31525;-74
2022/02/06 11:16:37;;;;;;;0.50;0.33;;;7.20;1.40;;;7.44;78.89;95245.72;646463;216;31511;-74
2022/02/06 11:19:18;;;;;;;0.50;0.25;;;7.00;1.40;;;7.60;78.34;95233.80;645456;216;31967;-76
2022/02/06 11:22:07;;;;;;;0.60;0.35;;;7.10;1.40;;;6.93;79.67;95233.05;617478;226;31882;-73
2022/02/06 11:24:48;;;;;;;0.40;0.30;;;6.30;1.40;;;7.13;78.65;95196.84;646926;216;31516;-74
2022/02/06 11:27:30;;;;;;;0.62;0.62;;;6.80;1.40;;;7.21;75.08;95181.09;646096;216;42139;-75
2022/02/06 11:30:18;;;;;;;1.67;0.73;;;6.60;1.40;;;6.93;77.36;95187.30;646549;216;32062;-78
2022/02/06 11:33:00;;;;;;;0.40;0.30;;;6.80;1.40;;;7.31;76.94;95198.52;647714;212;31497;-78
2022/02/06 11:35:57;;;;;;;0.50;0.30;;;6.80;1.40;;;6.66;76.49;95190.83;617428;226;42671;-77
2022/02/06 11:45:23;;;;;;;1.08;0.50;;;6.00;1.40;;;6.19;79.69;95168.86;647451;216;31549;-79
2022/02/06 11:48:07;;;;;;;0.50;0.30;;;5.80;1.40;;;6.14;79.81;95150.88;647634;212;31587;-74
2022/02/06 11:50:51;;;;;;;0.50;0.40;;;5.80;1.40;;;6.08;82.60;95136.64;645786;216;31516;-75
2022/02/06 11:53:39;;;;;;;1.00;0.60;;;5.70;1.40;;;6.00;81.19;95148.07;646570;216;42162;-78
2022/02/06 11:56:33;;;;;;;0.60;0.50;;;5.60;1.40;;;5.99;79.82;95153.03;647007;216;31517;-76
2022/02/06 11:59:20;;;;;;;0.45;0.30;;;5.60;1.40;;;5.94;81.82;95161.50;646667;216;31533;-78
2022/02/06 12:02:31;;;;;;;1.37;0.50;;;5.60;1.40;;;5.93;80.88;95130.02;645676;212;31570;-76
2022/02/06 12:05:28;;;;;;;0.47;0.37;;;5.60;1.40;;;5.90;81.10;95136.67;619293;226;31970;-75
2022/02/06 12:08:10;;;;;;;0.50;0.40;;;5.60;1.40;;;6.06;78.47;95125.09;634547;212;32433;-74
2022/02/06 12:11:14;;;;;;;0.40;0.30;;;5.70;1.40;;;6.19;73.59;95115.08;645678;216;31493;-78
2022/02/06 12:14:09;;;;;;;0.40;0.30;;;5.90;1.40;;;6.24;73.47;95116.43;648012;216;31488;-77
2022/02/06 12:17:18;;;;;;;1.90;0.80;;;5.90;1.40;;;6.12;73.18;95080.09;646196;213;31886;-76
2022/02/06 12:22:46;;;;;;;1.48;0.73;;;5.90;1.40;;;6.14;75.35;95105.55;646065;216;31629;-76
2022/02/06 12:25:35;;;;;;;0.40;0.20;;;5.80;1.40;;;6.13;75.50;95073.67;646302;216;31514;-75
2022/02/06 12:28:30;;;;;;;0.40;0.20;;;5.80;1.40;;;6.18;75.85;95062.61;647019;212;31793;-75
2022/02/06 12:31:28;;;;;;;0.43;0.25;;;5.90;1.40;;;6.25;77.49;95097.25;646646;216;31497;-77
2022/02/06 12:38:47;;;;;;;0.40;0.30;;;6.00;1.40;;;6.32;79.67;95091.07;645575;216;42118;-77
2022/02/06 12:41:31;;;;;;;0.50;0.40;;;6.00;1.40;;;6.37;78.32;95058.55;646982;216;42635;-74
2022/02/06 12:44:18;;;;;;;0.60;0.40;;;6.00;1.40;;;6.37;78.89;95082.13;620213;222;31836;-78
2022/02/06 12:47:02;;;;;;;1.00;0.50;;;6.00;1.40;;;6.35;79.67;95041.55;620364;226;32121;-76
2022/02/06 12:49:50;;;;;;;1.05;0.60;;;6.00;1.40;;;6.35;78.90;95022.76;646919;216;31571;-80
2022/02/06 12:52:38;;;;;;;0.62;0.30;;;6.00;1.40;;;6.35;80.16;95037.20;646411;212;31489;-75
2022/02/06 12:55:19;;;;;;;0.40;0.30;;;5.90;1.40;;;6.26;80.02;95034.21;646100;216;31558;-74
2022/02/06 12:58:01;;;;;;;0.47;0.45;;;5.90;1.40;;;6.26;82.53;95033.03;645985;216;42273;-74
2022/02/06 13:00:49;;;;;;;0.50;0.30;;;5.80;1.40;;;6.21;83.67;95030.28;647529;216;31495;-75
2022/02/06 13:03:30;;;;;;;0.50;0.30;;;5.80;1.40;;;6.09;85.42;95031.47;646749;212;31525;-78
2022/02/06 13:06:13;;;;;;;0.65;0.30;;;5.70;1.40;;;6.03;85.74;95014.70;646294;216;31523;-74
2022/02/06 13:08:53;;;;;;;0.40;0.20;;;5.70;1.40;;;6.03;85.98;94990.16;645398;212;31508;-76
2022/02/06 13:11:43;;;;;;;0.50;0.30;;;5.70;1.40;;;6.06;87.14;95000.02;646532;216;31503;-74
2022/02/06 13:14:27;;;;;;;0.40;0.40;;;5.70;1.40;;;6.03;87.18;94999.84;648341;212;31495;-78
2022/02/06 13:17:21;;;;;;;0.40;0.30;;;5.70;1.40;;;6.04;86.78;94996.92;646121;212;31699;-74
2022/02/06 13:23:03;;;;;;;0.70;0.40;;;5.70;1.40;;;6.02;87.12;94980.53;646215;216;31611;-75
2022/02/06 13:25:52;;;;;;;0.50;0.40;;;5.70;1.40;;;6.03;87.65;94981.27;649090;212;32064;-77
2022/02/06 13:28:40;;;;;;;0.50;0.43;;;5.70;1.40;;;6.03;87.75;95005.23;646241;216;31640;-77
2022/02/06 13:31:33;;;;;;;5.00;0.60;;;5.70;1.40;;;6.09;85.48;94974.37;619866;222;32064;-77
2022/02/06 13:36:08;;;;;;;1.70;0.40;;;5.70;1.40;;;6.07;87.14;94955.19;648105;216;33529;-78
2022/02/06 13:38:48;;;;;;;1.00;0.43;;;5.70;1.40;;;6.04;85.25;94960.44;646114;212;42689;-74
2022/02/06 13:41:32;;;;;;;0.52;0.30;;;5.80;1.40;;;6.06;86.40;94958.97;647587;212;31659;-79
2022/02/06 13:44:23;;;;;;;0.62;0.30;;;5.70;1.40;;;6.04;85.84;94952.96;647177;212;31479;-75
2022/02/06 13:47:05;;;;;;;0.80;0.40;;;5.70;1.40;;;6.12;85.25;94959.16;647563;216;31573;-78
2022/02/06 13:52:22;;;;;;;0.80;0.50;;;5.70;1.40;;;6.06;86.34;94960.80;646878;216;31490;-75
2022/02/06 13:55:05;;;;;;;1.00;0.80;;;5.70;1.40;;;6.08;85.41;94942.74;646025;216;42202;-76
2022/02/06 13:57:52;;;;;;;0.60;0.30;;;5.80;1.40;;;6.15;85.04;94958.98;645956;212;31787;-77
2022/02/06 14:00:33;;;;;;;0.62;0.43;;;5.80;1.40;;;6.05;87.73;94940.02;646029;212;31589;-76
2022/02/06 14:03:18;;;;;;;1.50;0.60;;;5.70;1.40;;;6.11;85.93;94936.36;646581;216;31500;-76
2022/02/06 14:06:07;;;;;;;0.40;0.30;;;5.70;1.40;;;6.05;86.42;94925.28;647343;216;31594;-78
2022/02/06 14:08:55;;;;;;;1.60;0.70;;;5.70;1.40;;;6.03;87.37;94923.00;647730;216;31633;-77
2022/02/06 14:11:37;;;;;;;0.45;0.30;;;5.70;1.40;;;5.98;87.71;94890.03;647859;216;42134;-78